Time;durP1;ratioP1;P1;durP2;ratioP2;P2;SDS_P1;SDS_P2;PMS_P1;PMS_P2;Temp;Humidity;BMP_temperature;BMP_pressure;BME280_temperature;BME280_humidity;BME280_pressure;Samples;Min_cycle;Max_cycle;Signal;HPM_P1;HPM_P2
2022/06/25 00:02:03;;;;;;;23.38;15.80;;;15.20;99.90;;;14.36;100.00;97079.00;5030288;28;20403;-76
2022/06/25 00:07:14;;;;;;;22.65;15.05;;;15.20;99.90;;;14.29;100.00;97081.22;5030549;28;20402;-77
2022/06/25 00:09:40;;;;;;;20.73;14.45;;;15.20;99.90;;;14.30;100.00;97083.59;5030368;28;20808;-77
2022/06/25 00:14:53;;;;;;;22.52;15.10;;;15.20;99.90;;;14.32;100.00;97092.13;5033835;28;20397;-77
2022/06/25 00:17:20;;;;;;;22.92;15.05;;;15.20;99.90;;;14.31;100.00;97092.38;5039702;28;20450;-77
2022/06/25 00:19:46;;;;;;;22.70;15.05;;;15.10;99.90;;;14.27;100.00;97094.84;5030687;28;20536;-76
2022/06/25 00:22:12;;;;;;;22.30;14.73;;;15.10;99.90;;;14.29;100.00;97098.00;5030095;28;20410;-76
2022/06/25 00:24:38;;;;;;;23.00;15.48;;;15.10;99.90;;;14.26;100.00;97095.91;5030123;28;20419;-77
2022/06/25 00:27:05;;;;;;;17.60;12.55;;;15.10;99.90;;;14.11;100.00;97096.06;5030234;28;20403;-76
2022/06/25 00:29:31;;;;;;;22.92;14.90;;;14.90;99.90;;;14.15;100.00;97099.72;5029552;28;20438;-77
2022/06/25 00:31:58;;;;;;;19.85;14.35;;;15.00;99.90;;;14.17;100.00;97100.25;5030063;28;20407;-76
2022/06/25 00:34:26;;;;;;;22.60;14.63;;;15.00;99.90;;;14.12;100.00;97100.31;5029960;28;20431;-76
2022/06/25 00:36:52;;;;;;;25.73;15.40;;;15.00;99.90;;;14.15;100.00;97102.38;5030042;28;20403;-76
2022/06/25 00:39:18;;;;;;;20.13;14.25;;;15.00;99.90;;;14.13;100.00;97104.56;5029628;28;20403;-76
2022/06/25 00:41:44;;;;;;;20.73;14.15;;;15.00;99.90;;;14.11;100.00;97104.03;5029855;28;20951;-77
2022/06/25 00:44:11;;;;;;;20.50;13.35;;;15.00;99.90;;;14.12;100.00;97100.31;5029760;28;20518;-76
2022/06/25 00:46:37;;;;;;;20.33;14.15;;;15.00;99.90;;;14.10;100.00;97098.97;5028644;28;20407;-76
2022/06/25 00:49:04;;;;;;;17.70;13.10;;;15.00;99.90;;;14.07;100.00;97104.84;5029299;28;20402;-76
2022/06/25 00:51:33;;;;;;;19.53;13.67;;;14.90;99.90;;;14.06;100.00;97105.97;5029687;28;20403;-76
2022/06/25 00:54:04;;;;;;;19.67;13.63;;;14.90;99.90;;;14.02;100.00;97105.72;5029958;28;20407;-77
2022/06/25 00:56:36;;;;;;;19.65;14.50;;;14.90;99.90;;;14.05;100.00;97105.16;5029899;28;20461;-76
2022/06/25 00:59:04;;;;;;;22.38;14.00;;;14.90;99.90;;;14.01;100.00;97106.78;5029330;28;20822;-77
2022/06/25 01:01:34;;;;;;;21.25;13.75;;;14.90;99.90;;;14.00;100.00;97110.50;5029473;28;20509;-76
2022/06/25 01:04:00;;;;;;;16.80;12.27;;;14.90;99.90;;;13.99;100.00;97108.13;5029583;28;20411;-76
2022/06/25 01:06:28;;;;;;;18.48;13.30;;;14.90;99.90;;;13.97;100.00;97107.63;5028369;28;20782;-77
2022/06/25 01:08:55;;;;;;;20.70;13.07;;;14.80;99.90;;;13.98;100.00;97098.56;5029251;28;20403;-75
2022/06/25 01:11:21;;;;;;;19.23;13.23;;;14.80;99.90;;;13.97;100.00;97107.63;5029753;28;20415;-76
2022/06/25 01:13:47;;;;;;;19.15;13.57;;;14.80;99.90;;;13.96;100.00;97109.50;5029661;28;20403;-76
2022/06/25 01:16:13;;;;;;;21.05;13.73;;;14.80;99.90;;;13.94;100.00;97101.78;5028553;28;20912;-76
2022/06/25 01:18:39;;;;;;;19.93;14.27;;;14.80;99.90;;;13.93;100.00;97113.50;5029225;28;20501;-76
2022/06/25 01:21:05;;;;;;;19.02;12.98;;;14.80;99.90;;;13.91;100.00;97110.31;5029544;28;20406;-76
2022/06/25 01:23:33;;;;;;;20.63;12.45;;;14.80;99.90;;;13.87;100.00;97117.28;5029695;28;20402;-76
2022/06/25 01:25:59;;;;;;;19.43;14.07;;;14.80;99.90;;;13.91;100.00;97114.84;5029570;28;20426;-76
2022/06/25 01:28:25;;;;;;;16.55;12.65;;;14.80;99.90;;;13.84;100.00;97119.69;5029038;28;20490;-75
2022/06/25 01:30:51;;;;;;;17.02;12.18;;;14.70;99.90;;;13.83;100.00;97118.13;5032475;28;20407;-76
2022/06/25 01:33:17;;;;;;;17.57;12.23;;;14.70;99.90;;;13.81;100.00;97120.25;5033460;28;20413;-76
2022/06/25 01:35:43;;;;;;;17.15;12.20;;;14.70;99.90;;;13.77;100.00;97106.69;5033103;28;20399;-76
2022/06/25 01:38:09;;;;;;;18.58;12.43;;;14.60;99.90;;;13.76;100.00;97118.41;5033028;28;20549;-76
2022/06/25 01:40:37;;;;;;;16.65;12.25;;;14.70;99.90;;;13.72;100.00;97117.38;5033009;28;20407;-76
2022/06/25 01:43:04;;;;;;;18.45;12.43;;;14.60;99.90;;;13.71;100.00;97120.31;5033137;28;20398;-76
2022/06/25 01:45:33;;;;;;;16.70;11.55;;;14.60;99.90;;;13.70;100.00;97121.38;5032937;28;20488;-76
2022/06/25 01:47:59;;;;;;;19.45;12.20;;;14.60;99.90;;;13.65;100.00;97124.88;5033160;28;20404;-76
2022/06/25 01:50:26;;;;;;;19.27;12.90;;;14.50;99.90;;;13.62;100.00;97121.97;5032564;28;20415;-76
2022/06/25 01:52:52;;;;;;;16.40;12.57;;;14.50;99.90;;;13.64;100.00;97130.47;5033373;28;20435;-76
2022/06/25 01:55:19;;;;;;;20.85;13.30;;;14.50;99.90;;;13.64;100.00;97119.84;5032761;28;20407;-76
2022/06/25 01:57:48;;;;;;;17.80;12.50;;;14.50;99.90;;;13.59;100.00;97110.03;5031589;28;20411;-76
2022/06/25 02:00:18;;;;;;;18.88;12.52;;;14.50;99.90;;;13.60;100.00;97121.47;5031998;28;20394;-77
2022/06/25 02:02:45;;;;;;;15.52;12.00;;;14.50;99.90;;;13.59;100.00;97127.84;5032707;28;20395;-75
2022/06/25 02:05:14;;;;;;;19.47;12.50;;;14.40;99.90;;;13.55;100.00;97128.41;5032661;28;20422;-76
2022/06/25 02:07:40;;;;;;;19.17;11.98;;;14.40;99.90;;;13.51;100.00;97126.56;5032888;28;20498;-75
2022/06/25 02:10:08;;;;;;;23.17;14.77;;;14.40;99.90;;;13.48;100.00;97130.56;5031868;28;20552;-75
2022/06/25 02:12:34;;;;;;;19.37;13.33;;;14.40;99.90;;;13.52;100.00;97125.50;5032903;28;20572;-75
2022/06/25 02:15:02;;;;;;;21.05;12.50;;;14.40;99.90;;;13.55;100.00;97131.06;5032437;28;20474;-77
2022/06/25 02:17:28;;;;;;;19.58;13.45;;;14.40;99.90;;;13.54;100.00;97134.00;5032768;28;20831;-78
2022/06/25 02:19:54;;;;;;;19.00;12.77;;;14.40;99.90;;;13.60;100.00;97134.78;5031915;28;20410;-78
2022/06/25 02:22:20;;;;;;;22.63;13.55;;;14.40;99.90;;;13.56;100.00;97130.00;5032514;28;20897;-77
2022/06/25 02:24:46;;;;;;;19.98;13.13;;;14.40;99.90;;;13.55;100.00;97132.94;5030985;28;20426;-77
2022/06/25 02:27:12;;;;;;;20.60;13.00;;;14.40;99.90;;;13.55;100.00;97135.59;5032619;28;20399;-77
2022/06/25 02:29:38;;;;;;;19.85;13.60;;;14.40;99.90;;;13.56;100.00;97137.19;5032060;28;20406;-76
2022/06/25 02:32:07;;;;;;;18.00;12.27;;;14.40;99.90;;;13.56;100.00;97139.84;5031117;28;20824;-77
2022/06/25 02:34:33;;;;;;;15.55;10.10;;;14.40;99.90;;;13.48;100.00;97143.06;5033044;28;20395;-77
2022/06/25 02:36:59;;;;;;;18.53;11.03;;;14.30;99.90;;;13.48;100.00;97143.88;5032679;28;20449;-77
2022/06/25 02:39:25;;;;;;;16.60;11.18;;;14.30;99.90;;;13.47;100.00;97147.59;5033771;28;20396;-78
2022/06/25 02:41:51;;;;;;;18.02;11.75;;;14.30;99.90;;;13.42;100.00;97150.28;5031415;28;20395;-76
2022/06/25 02:44:16;;;;;;;15.93;10.30;;;14.30;99.90;;;13.39;100.00;97142.84;5031961;28;20761;-76
2022/06/25 02:46:42;;;;;;;15.25;11.15;;;14.30;99.90;;;13.38;100.00;97141.25;5031956;28;20402;-76
2022/06/25 02:49:10;;;;;;;18.83;12.05;;;14.20;99.90;;;13.39;100.00;97142.84;5031306;28;20889;-77
2022/06/25 02:51:36;;;;;;;14.50;10.23;;;14.30;99.90;;;13.39;100.00;97140.19;5031757;28;20400;-77
2022/06/25 02:54:02;;;;;;;14.67;9.80;;;14.30;99.90;;;13.40;100.00;97138.34;5031804;28;20768;-76
2022/06/25 02:59:13;;;;;;;12.73;9.50;;;14.20;99.90;;;13.38;100.00;97140.50;5031515;28;20403;-77
2022/06/25 03:01:39;;;;;;;15.38;10.30;;;14.20;99.90;;;13.40;100.00;97141.78;5031628;28;20892;-77
2022/06/25 03:04:05;;;;;;;12.95;9.50;;;14.30;99.90;;;13.35;100.00;97141.81;5030029;28;20498;-76
2022/06/25 03:06:32;;;;;;;11.18;9.20;;;14.20;99.90;;;13.31;100.00;97143.44;5031495;28;20468;-77
2022/06/25 03:08:59;;;;;;;12.77;8.80;;;14.20;99.90;;;13.34;100.00;97142.09;5031001;28;20403;-77
2022/06/25 03:11:25;;;;;;;13.77;9.10;;;14.20;99.90;;;13.31;100.00;97139.97;5031535;28;20407;-77
2022/06/25 03:13:51;;;;;;;14.15;8.90;;;14.20;99.90;;;13.27;100.00;97138.94;5030303;28;20496;-77
2022/06/25 03:16:17;;;;;;;11.43;8.10;;;14.10;99.90;;;13.22;100.00;97142.44;5031482;28;20399;-77
2022/06/25 03:18:43;;;;;;;9.05;7.32;;;14.10;99.90;;;13.19;100.00;97127.03;5030754;28;20757;-76
2022/06/25 03:21:09;;;;;;;11.38;7.85;;;14.10;99.90;;;13.18;100.00;97131.53;5031202;28;20445;-76
2022/06/25 03:23:37;;;;;;;11.10;7.95;;;14.00;99.90;;;13.22;100.00;97136.31;5031312;28;20813;-77
2022/06/25 03:26:02;;;;;;;12.05;7.57;;;14.10;99.90;;;13.20;100.00;97138.44;5031034;28;20419;-77
2022/06/25 03:28:29;;;;;;;10.63;7.38;;;14.10;99.90;;;13.20;100.00;97135.78;5030700;28;20452;-78
2022/06/25 03:30:55;;;;;;;8.93;6.85;;;14.00;99.90;;;13.18;100.00;97136.84;5031094;28;20415;-79
2022/06/25 03:33:21;;;;;;;7.25;6.05;;;14.10;99.90;;;13.20;100.00;97131.28;5046329;28;20422;-77
2022/06/25 03:35:47;;;;;;;8.23;6.43;;;14.00;99.90;;;13.26;100.00;97127.50;5029563;28;20411;-77
2022/06/25 03:38:13;;;;;;;8.88;6.05;;;14.10;99.90;;;13.21;100.00;97124.91;5029302;28;20637;-77
2022/06/25 03:40:40;;;;;;;8.20;7.03;;;14.10;99.90;;;13.23;100.00;97129.94;5030739;28;20772;-76
2022/06/25 03:43:06;;;;;;;10.05;6.88;;;14.10;99.90;;;13.23;100.00;97127.28;5030967;28;20403;-79
2022/06/25 03:45:32;;;;;;;9.63;5.35;;;14.10;99.90;;;13.15;100.00;97129.44;5030844;28;20415;-77
2022/06/25 03:47:58;;;;;;;8.17;6.40;;;14.00;99.90;;;13.22;100.00;97133.66;5030941;28;20461;-76
2022/06/25 03:50:24;;;;;;;6.72;6.03;;;14.10;99.90;;;13.26;100.00;97130.16;5030052;28;20411;-77
2022/06/25 03:52:51;;;;;;;5.80;5.20;;;14.10;99.90;;;13.27;100.00;97130.97;5030615;28;20407;-77
2022/06/25 03:55:18;;;;;;;11.73;6.05;;;14.10;99.90;;;13.24;100.00;97129.63;5030557;28;20399;-76
2022/06/25 03:57:46;;;;;;;12.38;5.68;;;14.10;99.90;;;13.25;100.00;97135.75;5030726;28;20773;-76
2022/06/25 04:00:14;;;;;;;5.50;4.70;;;14.10;99.90;;;13.24;100.00;97128.84;5029753;28;20402;-75
2022/06/25 04:02:40;;;;;;;6.30;5.10;;;14.10;99.90;;;13.27;100.00;97139.75;5030606;28;20769;-77
2022/06/25 04:05:07;;;;;;;8.00;5.00;;;14.10;99.90;;;13.30;100.00;97141.06;5030362;28;20563;-77
2022/06/25 04:07:33;;;;;;;5.30;4.63;;;14.20;99.90;;;13.33;100.00;97143.94;5030664;28;20403;-76
2022/06/25 04:09:59;;;;;;;8.93;5.03;;;14.20;99.90;;;13.39;100.00;97134.09;5029917;28;20477;-78
2022/06/25 04:12:25;;;;;;;6.95;4.68;;;14.30;99.90;;;13.44;100.00;97137.53;5030439;28;20888;-77
2022/06/25 04:14:53;;;;;;;7.32;5.40;;;14.30;99.90;;;13.50;100.00;97146.25;5030358;28;20460;-77
2022/06/25 04:17:19;;;;;;;5.85;4.72;;;14.40;99.90;;;13.54;100.00;97148.09;5030484;28;20912;-77
2022/06/25 04:19:45;;;;;;;5.20;4.70;;;14.40;99.90;;;13.54;100.00;97144.63;5028390;28;20423;-77
2022/06/25 04:22:12;;;;;;;4.93;4.43;;;14.40;99.90;;;13.61;100.00;97161.06;5030044;28;20411;-77
2022/06/25 04:24:40;;;;;;;6.75;4.82;;;14.50;99.90;;;13.66;100.00;97163.72;5030050;28;20514;-77
2022/06/25 04:27:07;;;;;;;5.03;4.28;;;14.50;99.90;;;13.66;100.00;97166.38;5030053;28;20437;-77
2022/06/25 04:29:33;;;;;;;6.65;4.30;;;14.50;99.90;;;13.67;100.00;97164.50;5029423;28;20399;-77
2022/06/25 04:32:00;;;;;;;6.07;3.78;;;14.50;99.90;;;13.59;100.00;97163.22;5028477;28;20410;-76
2022/06/25 04:34:26;;;;;;;6.80;4.40;;;14.50;99.90;;;13.66;100.00;97168.25;5030254;28;20506;-76
2022/06/25 04:36:53;;;;;;;5.97;4.40;;;14.50;99.90;;;13.71;100.00;97168.19;5029886;28;20407;-77
2022/06/25 04:39:19;;;;;;;7.93;4.20;;;14.60;99.90;;;13.71;100.00;97165.53;5029412;28;20406;-77
2022/06/25 04:41:48;;;;;;;6.72;4.68;;;14.60;99.90;;;13.79;100.00;97167.63;5029854;28;21031;-77
2022/06/25 04:44:15;;;;;;;6.60;4.07;;;14.60;99.90;;;13.83;100.00;97177.41;5030064;28;20401;-77
2022/06/25 04:46:41;;;;;;;5.72;4.57;;;14.60;99.90;;;13.88;100.00;97179.25;5029924;28;20406;-77
2022/06/25 04:49:08;;;;;;;7.50;4.30;;;14.70;99.90;;;13.87;100.00;97188.31;5029244;28;20461;-77
2022/06/25 04:51:34;;;;;;;5.28;4.00;;;14.70;99.90;;;13.91;100.00;97187.47;5029586;28;20403;-76
2022/06/25 04:54:03;;;;;;;4.63;3.80;;;14.70;99.90;;;13.89;100.00;97191.50;5029656;28;20457;-76
2022/06/25 04:56:29;;;;;;;4.43;4.03;;;14.80;99.90;;;14.03;100.00;97189.81;5024989;28;20400;-81
2022/06/25 04:58:57;;;;;;;5.60;4.25;;;14.90;99.90;;;14.08;100.00;97187.09;5019399;28;20422;-77
2022/06/25 05:01:23;;;;;;;5.55;4.10;;;14.90;99.90;;;14.15;100.00;97190.22;5019219;28;20409;-78
2022/06/25 05:03:49;;;;;;;6.70;4.20;;;15.00;99.90;;;14.20;100.00;97187.53;5017023;28;20403;-76
2022/06/25 05:06:17;;;;;;;5.40;4.20;;;15.00;99.90;;;14.28;100.00;97194.16;5022312;28;20407;-76
2022/06/25 05:08:43;;;;;;;4.20;3.80;;;15.10;99.90;;;14.29;100.00;97185.06;5020664;28;20413;-77
2022/06/25 05:11:09;;;;;;;5.20;3.80;;;15.10;99.90;;;14.34;100.00;97188.50;5020853;28;20504;-77
2022/06/25 05:13:35;;;;;;;5.47;3.60;;;15.20;99.90;;;14.36;100.00;97188.19;5022732;28;20410;-77
2022/06/25 05:16:01;;;;;;;4.15;3.45;;;15.20;99.90;;;14.40;100.00;97194.59;5021355;28;20397;-78
2022/06/25 05:18:27;;;;;;;8.27;3.50;;;15.20;99.90;;;14.38;100.00;97202.06;5022140;28;20490;-77
2022/06/25 05:20:53;;;;;;;4.05;3.17;;;15.20;99.90;;;14.48;100.00;97211.84;5024147;28;20412;-76
2022/06/25 05:23:21;;;;;;;3.20;2.90;;;15.30;99.90;;;14.53;100.00;97212.56;5021267;28;20444;-76
2022/06/25 05:25:48;;;;;;;4.97;3.25;;;15.40;99.90;;;14.51;100.00;97211.28;5021935;28;20458;-78
2022/06/25 05:28:15;;;;;;;5.32;2.72;;;15.40;99.90;;;14.64;100.00;97203.44;5020341;28;20444;-80
2022/06/25 05:30:41;;;;;;;5.05;3.30;;;15.50;99.90;;;14.75;100.00;97216.63;5023487;28;20406;-79
2022/06/25 05:33:07;;;;;;;6.00;3.30;;;15.50;99.90;;;14.78;100.00;97206.22;5023356;28;20963;-81
2022/06/25 05:35:34;;;;;;;4.72;3.30;;;15.60;99.90;;;14.82;100.00;97206.44;5021942;28;20495;-79
2022/06/25 05:38:00;;;;;;;3.53;2.97;;;15.60;99.90;;;14.88;100.00;97208.00;5023776;28;20405;-78
2022/06/25 05:40:27;;;;;;;3.72;3.42;;;15.70;99.90;;;14.94;100.00;97212.19;5021161;28;20759;-80
2022/06/25 05:42:53;;;;;;;3.75;3.00;;;15.80;99.90;;;14.94;100.00;97205.00;5019860;28;20502;-81
2022/06/25 05:45:19;;;;;;;4.35;3.00;;;15.80;99.90;;;15.03;100.00;97213.16;5023747;28;20427;-81
2022/06/25 05:47:45;;;;;;;5.15;2.97;;;15.80;99.90;;;15.05;100.00;97214.44;5030342;28;20410;-78
2022/06/25 05:50:11;;;;;;;3.40;3.10;;;15.90;99.90;;;15.09;100.00;97220.81;5027899;28;20816;-81
2022/06/25 05:52:37;;;;;;;3.60;3.30;;;15.90;99.90;;;15.17;100.00;97218.59;5022392;28;20401;-78
2022/06/25 05:55:06;;;;;;;3.88;3.25;;;16.00;99.90;;;15.19;100.00;97214.56;5029283;22;20709;-80
2022/06/25 05:57:33;;;;;;;6.85;3.38;;;16.00;99.90;;;15.22;100.00;97222.00;5001688;28;20392;-79
2022/06/25 06:00:00;;;;;;;3.30;3.00;;;16.00;99.90;;;15.27;100.00;97229.13;4998529;28;20399;-80
2022/06/25 06:02:26;;;;;;;3.28;2.97;;;16.10;99.90;;;15.31;100.00;97232.84;5002634;28;20422;-78
2022/06/25 06:04:53;;;;;;;4.93;3.30;;;16.10;99.90;;;15.34;100.00;97232.25;4995202;28;20426;-79
2022/06/25 06:07:19;;;;;;;3.30;2.90;;;16.10;99.90;;;15.33;100.00;97231.47;4997934;28;20405;-78
2022/06/25 06:09:45;;;;;;;3.50;3.20;;;16.10;99.90;;;15.37;100.00;97237.81;4996385;28;20402;-80
2022/06/25 06:12:11;;;;;;;3.97;2.77;;;16.20;99.90;;;15.41;100.00;97235.41;5001653;28;20434;-81
2022/06/25 06:14:38;;;;;;;3.75;3.00;;;16.20;99.90;;;15.42;100.00;97236.97;4998260;28;20776;-82
2022/06/25 06:17:04;;;;;;;3.63;3.00;;;16.20;99.90;;;15.48;100.00;97241.97;4991805;28;20426;-82
2022/06/25 06:19:30;;;;;;;3.45;2.97;;;16.30;99.90;;;15.53;100.00;97237.63;4998651;28;20430;-81
2022/06/25 06:21:56;;;;;;;4.57;3.05;;;16.30;99.90;;;15.55;100.00;97249.66;5001510;28;20400;-80
2022/06/25 06:24:22;;;;;;;3.38;3.08;;;16.30;99.90;;;15.60;100.00;97240.78;5003577;28;20806;-79
2022/06/25 06:26:48;;;;;;;3.25;2.90;;;16.40;99.90;;;15.64;100.00;97236.44;4995277;28;20422;-78
2022/06/25 06:29:14;;;;;;;4.93;2.90;;;16.40;99.90;;;15.68;100.00;97248.16;4991561;28;20412;-79
2022/06/25 06:31:41;;;;;;;5.38;2.55;;;16.50;99.90;;;15.57;100.00;97246.69;4991238;28;20460;-84
2022/06/25 06:34:08;;;;;;;3.05;2.75;;;16.40;99.90;;;15.69;100.00;97250.53;5004210;28;20409;-84
2022/06/25 06:36:34;;;;;;;7.45;2.95;;;16.50;99.90;;;15.77;100.00;97257.09;5009733;28;20496;-83
2022/06/25 06:39:01;;;;;;;5.13;2.50;;;16.60;99.90;;;15.82;100.00;97262.38;5010473;28;20424;-78
2022/06/25 06:41:27;;;;;;;3.20;2.50;;;16.60;99.90;;;15.83;100.00;97262.09;5002066;28;20963;-80
2022/06/25 06:43:53;;;;;;;3.88;2.80;;;16.60;99.90;;;15.85;100.00;97262.59;5002403;28;20404;-83
2022/06/25 06:46:19;;;;;;;4.43;2.80;;;16.60;99.90;;;15.91;100.00;97254.53;5000978;28;20540;-82
2022/06/25 06:48:47;;;;;;;2.85;2.65;;;16.70;99.90;;;15.96;100.00;97254.44;5001540;28;20397;-82
2022/06/25 06:51:13;;;;;;;2.80;2.60;;;16.70;99.90;;;16.03;100.00;97255.66;5002187;28;20406;-82
2022/06/25 06:53:39;;;;;;;3.50;3.00;;;16.80;99.90;;;16.08;100.00;97254.81;5000805;28;20434;-82
2022/06/25 06:56:05;;;;;;;2.92;2.63;;;16.90;99.90;;;16.13;100.00;97247.53;4999927;28;20428;-82
2022/06/25 06:58:31;;;;;;;3.20;2.90;;;16.90;99.90;;;16.19;100.00;97256.25;4994644;28;20438;-83
2022/06/25 07:00:57;;;;;;;4.07;2.70;;;17.00;99.90;;;16.24;100.00;97254.28;4992086;28;20402;-84
2022/06/25 07:03:23;;;;;;;3.13;2.47;;;17.00;99.90;;;16.19;100.00;97249.03;4992507;28;20413;-82
2022/06/25 07:05:50;;;;;;;3.42;2.40;;;16.90;99.90;;;16.27;100.00;97256.38;4992118;28;20860;-82
2022/06/25 07:08:16;;;;;;;2.70;2.45;;;17.00;99.90;;;16.34;100.00;97249.88;4991983;28;20402;-84
2022/06/25 07:10:42;;;;;;;3.45;2.40;;;17.10;99.90;;;16.46;100.00;97255.56;4993341;28;20460;-82
2022/06/25 07:13:08;;;;;;;3.28;2.60;;;17.20;99.90;;;16.47;100.00;97257.13;4988940;28;20441;-81
2022/06/25 07:15:34;;;;;;;2.60;2.40;;;17.30;99.90;;;16.62;100.00;97247.03;4991821;28;20498;-85
2022/06/25 07:18:01;;;;;;;2.78;2.35;;;17.30;99.90;;;16.71;100.00;97238.34;4991547;28;20411;-82
2022/06/25 07:20:27;;;;;;;2.70;2.40;;;17.40;99.90;;;16.83;100.00;97236.81;5010578;28;20426;-82
2022/06/25 07:22:54;;;;;;;2.90;2.22;;;17.60;99.90;;;16.92;100.00;97236.88;4994965;28;20912;-82
2022/06/25 07:25:20;;;;;;;4.07;2.70;;;17.60;99.90;;;16.96;100.00;97241.38;4996045;28;20418;-81
2022/06/25 07:27:48;;;;;;;2.50;2.30;;;17.70;99.90;;;17.07;100.00;97246.50;4998192;28;20425;-81
2022/06/25 07:30:15;;;;;;;6.78;2.75;;;17.70;99.90;;;16.94;100.00;97246.22;4983153;28;20402;-83
2022/06/25 07:32:41;;;;;;;6.50;2.40;;;17.70;99.90;;;17.10;100.00;97240.59;4999287;28;20424;-83
2022/06/25 07:35:08;;;;;;;4.18;2.70;;;17.80;99.90;;;17.10;100.00;97237.91;4990733;28;20409;-84
2022/06/25 07:37:34;;;;;;;4.68;2.47;;;17.80;99.90;;;16.93;100.00;97230.47;5006651;28;20922;-84
2022/06/25 07:40:03;;;;;;;2.65;2.30;;;17.70;99.90;;;16.95;100.00;97238.97;4991295;28;20406;-84
2022/06/25 07:42:31;;;;;;;4.20;2.30;;;17.70;99.90;;;16.82;100.00;97235.22;4991705;28;20418;-83
2022/06/25 07:44:58;;;;;;;4.07;2.83;;;17.60;99.90;;;17.03;100.00;97235.63;4992794;28;20504;-84
2022/06/25 07:47:24;;;;;;;5.25;2.67;;;17.70;99.90;;;17.13;100.00;97234.66;4992140;28;20856;-84
2022/06/25 07:52:35;;;;;;;3.53;2.92;;;17.90;99.90;;;17.32;100.00;97228.09;4995679;28;20409;-83
2022/06/25 07:55:03;;;;;;;4.03;2.42;;;18.00;99.90;;;17.39;100.00;97230.38;4996695;28;20420;-81
2022/06/25 07:57:29;;;;;;;3.60;2.70;;;18.00;99.90;;;17.61;100.00;97230.50;4993294;28;20470;-84
2022/06/25 07:59:55;;;;;;;2.63;2.30;;;18.30;99.90;;;17.63;100.00;97222.16;5001908;28;20413;-84
2022/06/25 08:02:21;;;;;;;4.10;2.80;;;18.40;99.90;;;17.81;100.00;97218.56;5000821;28;20495;-81
2022/06/25 08:04:47;;;;;;;3.97;2.57;;;18.50;99.90;;;17.80;100.00;97211.63;4992229;28;20434;-81
2022/06/25 08:07:13;;;;;;;4.43;2.90;;;18.50;99.90;;;17.78;100.00;97217.28;4994837;28;21085;-82
2022/06/25 08:09:39;;;;;;;3.30;2.60;;;18.50;99.90;;;17.85;100.00;97216.06;4988888;28;20900;-83
2022/06/25 08:12:08;;;;;;;3.63;2.67;;;18.50;99.90;;;18.00;100.00;97208.50;4991141;28;20420;-83
2022/06/25 08:14:34;;;;;;;4.07;2.33;;;18.60;99.90;;;18.20;100.00;97207.22;4990482;28;20517;-83
2022/06/25 08:17:00;;;;;;;4.40;2.10;;;18.80;99.90;;;18.08;100.00;97209.66;5003263;28;20401;-84
2022/06/25 08:19:26;;;;;;;4.07;2.30;;;18.70;99.90;;;18.38;100.00;97210.81;4999529;28;20584;-84
2022/06/25 08:21:51;;;;;;;6.30;1.95;;;19.00;99.90;;;18.20;100.00;97212.56;4998447;28;20401;-84
2022/06/25 08:24:17;;;;;;;4.75;2.50;;;18.90;99.90;;;18.39;100.00;97215.09;4994932;28;20519;-84
2022/06/25 08:26:43;;;;;;;3.72;2.10;;;19.00;99.90;;;18.42;100.00;97222.50;4999381;28;20422;-83
2022/06/25 08:29:11;;;;;;;6.50;2.55;;;19.00;99.90;;;18.48;100.00;97218.63;4990520;28;20402;-81
2022/06/25 08:31:37;;;;;;;2.65;2.40;;;19.20;99.90;;;18.52;100.00;97219.59;4992900;28;20439;-84
2022/06/25 08:34:03;;;;;;;3.30;2.58;;;19.20;99.90;;;18.48;100.00;97221.31;4990433;28;20418;-83
2022/06/25 08:36:29;;;;;;;2.60;2.40;;;19.20;99.90;;;18.41;100.00;97218.25;4999179;28;20417;-84
2022/06/25 08:38:55;;;;;;;3.30;2.20;;;19.10;99.90;;;18.45;100.00;97220.00;5007666;28;20443;-83
2022/06/25 08:41:22;;;;;;;2.55;2.15;;;19.10;99.90;;;18.56;100.00;97217.91;5010250;28;20458;-83
2022/06/25 08:43:48;;;;;;;3.35;2.38;;;19.20;99.90;;;18.71;100.00;97206.81;5005138;28;20440;-84
2022/06/25 08:46:16;;;;;;;2.28;1.90;;;19.40;99.90;;;18.97;100.00;97214.16;4990006;28;20457;-85
2022/06/25 08:48:48;;;;;;;2.30;2.00;;;19.60;99.90;;;19.24;100.00;97209.41;4989812;28;20417;-85
2022/06/25 08:51:17;;;;;;;2.95;1.85;;;19.90;99.90;;;19.44;100.00;97202.66;4971126;28;20901;-82
2022/06/25 08:53:44;;;;;;;3.85;2.30;;;20.10;99.90;;;19.23;100.00;97202.44;4971351;28;20416;-80
2022/06/25 08:56:10;;;;;;;3.45;2.15;;;20.10;99.90;;;19.59;100.00;97201.47;4970789;28;20894;-83
2022/06/25 08:58:37;;;;;;;3.35;2.00;;;20.20;99.90;;;19.77;100.00;97197.72;4969658;28;20420;-83
2022/06/25 09:01:03;;;;;;;3.50;2.10;;;20.40;99.90;;;19.94;100.00;97192.31;4975401;28;21015;-82
2022/06/25 09:03:30;;;;;;;2.10;1.80;;;20.60;99.90;;;20.09;100.00;97201.81;4991619;28;20789;-84
2022/06/25 09:06:10;;;;;;;2.40;1.75;;;20.70;99.90;;;20.19;100.00;97200.72;4985613;28;20418;-80
2022/06/25 09:08:36;;;;;;;2.58;1.67;;;20.80;99.90;;;20.29;100.00;97201.19;4991774;28;20428;-83
2022/06/25 09:11:02;;;;;;;2.10;1.88;;;20.90;99.90;;;20.44;100.00;97194.56;4991615;28;20414;-77
2022/06/25 09:13:28;;;;;;;4.20;1.80;;;21.00;99.90;;;20.54;100.00;97183.44;4987524;28;20406;-77
2022/06/25 09:15:54;;;;;;;4.10;1.63;;;21.10;99.90;;;20.65;100.00;97181.22;5004635;28;20415;-80
2022/06/25 09:18:21;;;;;;;4.85;1.77;;;21.20;99.90;;;20.16;100.00;97188.69;5008149;28;20784;-79
2022/06/25 09:21:04;;;;;;;6.47;1.83;;;20.90;99.90;;;20.06;100.00;97192.50;5010585;28;20440;-79
2022/06/25 09:23:33;;;;;;;3.67;2.10;;;20.80;99.90;;;20.30;100.00;97186.63;5008997;28;20419;-79
2022/06/25 09:26:06;;;;;;;3.60;2.03;;;20.90;99.90;;;20.33;100.00;97182.50;5011859;28;20417;-79
2022/06/25 09:28:34;;;;;;;2.10;1.70;;;21.00;99.90;;;20.36;100.00;97185.41;5009664;28;20463;-82
2022/06/25 09:31:02;;;;;;;2.65;2.25;;;20.90;99.90;;;20.51;100.00;97184.09;5008001;28;20814;-82
2022/06/25 09:33:29;;;;;;;2.65;1.90;;;21.10;99.90;;;20.54;100.00;97188.03;5001938;28;21153;-83
2022/06/25 09:35:56;;;;;;;2.08;1.85;;;21.20;99.90;;;20.41;100.00;97187.13;4982990;28;20453;-84
2022/06/25 09:38:24;;;;;;;2.85;1.77;;;21.10;99.90;;;20.31;100.00;97177.44;4990245;28;20413;-83
2022/06/25 09:40:53;;;;;;;2.33;1.90;;;21.00;99.90;;;20.34;100.00;97179.53;4988448;28;20808;-80
2022/06/25 09:43:21;;;;;;;3.03;2.15;;;20.90;99.90;;;20.49;100.00;97175.56;4990578;28;20789;-85
2022/06/25 09:45:51;;;;;;;5.45;2.00;;;21.10;99.90;;;20.66;100.00;97172.03;4989266;28;20426;-82
2022/06/25 09:48:19;;;;;;;4.38;1.70;;;21.20;99.90;;;20.68;100.00;97169.78;4990091;28;20422;-83
2022/06/25 09:51:04;;;;;;;2.60;1.63;;;21.20;99.90;;;20.96;100.00;97167.50;4978568;28;20532;-84
2022/06/25 09:53:32;;;;;;;2.92;2.00;;;21.50;99.90;;;20.98;100.00;97178.72;4987837;28;20468;-81
2022/06/25 09:56:00;;;;;;;4.88;1.90;;;21.50;99.90;;;21.02;100.00;97175.06;4992510;28;20493;-83
2022/06/25 09:58:28;;;;;;;3.10;1.90;;;21.60;99.90;;;21.13;100.00;97176.28;4993514;28;20445;-82
2022/06/25 10:00:54;;;;;;;4.38;1.77;;;21.70;99.90;;;20.96;100.00;97172.88;4992295;28;20420;-82
2022/06/25 10:03:21;;;;;;;7.22;2.22;;;21.60;99.90;;;20.85;100.00;97175.91;4993750;28;20406;-81
2022/06/25 10:05:48;;;;;;;4.90;1.80;;;21.50;99.90;;;20.76;100.00;97177.06;4993512;28;20455;-82
2022/06/25 10:08:17;;;;;;;2.78;1.70;;;21.40;99.90;;;20.85;100.00;97158.97;4993224;28;20406;-75
2022/06/25 10:10:48;;;;;;;3.60;1.98;;;21.40;99.90;;;20.88;100.00;97157.56;4992752;28;20407;-74
2022/06/25 10:13:15;;;;;;;2.83;1.92;;;21.40;99.90;;;20.96;100.00;97157.53;4993075;28;20421;-76
2022/06/25 10:15:41;;;;;;;2.50;1.80;;;21.50;99.90;;;21.26;100.00;97157.56;4993024;28;20434;-76
2022/06/25 10:18:10;;;;;;;5.47;2.08;;;21.80;99.90;;;21.55;100.00;97161.03;4994636;28;20421;-76